createdAt,value
2019-01-22T00:02:13.057Z,100979.95
2019-01-22T00:04:40.037Z,100971.84
2019-01-22T00:07:07.056Z,100975.16
2019-01-22T00:09:34.046Z,100974.95
2019-01-22T00:12:01.150Z,100970.06
2019-01-22T00:14:28.114Z,100963.34
2019-01-22T00:16:55.049Z,100963.68
2019-01-22T00:19:21.978Z,100966.23
2019-01-22T00:21:49.030Z,100951.87
2019-01-22T00:24:15.944Z,100951.13
2019-01-22T00:26:43.042Z,100950.47
2019-01-22T00:29:09.979Z,100935.81
2019-01-22T00:31:36.888Z,100929.06
2019-01-22T00:34:03.779Z,100929.22
2019-01-22T00:36:30.684Z,100918.89
2019-01-22T00:38:57.562Z,100911.53
2019-01-22T00:41:24.470Z,100907.17
2019-01-22T00:43:51.654Z,100907.00
2019-01-22T00:46:18.645Z,100900.46
2019-01-22T00:48:45.609Z,100892.97
2019-01-22T00:51:12.607Z,100895.48
2019-01-22T00:53:39.517Z,100887.45
2019-01-22T00:56:06.453Z,100886.59
2019-01-22T00:58:33.324Z,100886.27
2019-01-22T01:01:00.293Z,100886.47
2019-01-22T01:03:27.212Z,100888.41
2019-01-22T01:05:54.158Z,100888.81
2019-01-22T01:08:21.069Z,100881.78
2019-01-22T01:10:48.025Z,100887.20
2019-01-22T01:13:14.966Z,100891.85
2019-01-22T01:15:42.264Z,100882.36
2019-01-22T01:18:09.157Z,100875.97
2019-01-22T01:20:36.103Z,100882.92
2019-01-22T01:23:03.005Z,100877.58
2019-01-22T01:25:29.960Z,100876.88
2019-01-22T01:27:56.856Z,100868.64
2019-01-22T01:30:24.970Z,100867.78
2019-01-22T01:32:52.359Z,100868.72
2019-01-22T01:35:19.267Z,100859.55
2019-01-22T01:37:46.205Z,100856.22
2019-01-22T01:40:14.712Z,100857.63
2019-01-22T01:42:41.671Z,100853.63
2019-01-22T01:45:08.790Z,100848.81
2019-01-22T01:47:35.730Z,100840.34
2019-01-22T01:50:03.491Z,100842.41
2019-01-22T01:52:30.409Z,100832.36
2019-01-22T01:54:57.322Z,100822.25
2019-01-22T01:57:24.295Z,100821.22
2019-01-22T01:59:51.192Z,100813.00
2019-01-22T02:02:18.159Z,100810.78
2019-01-22T02:04:45.264Z,100804.94
2019-01-22T02:07:12.277Z,100804.94
2019-01-22T02:09:39.230Z,100792.52
2019-01-22T02:12:06.190Z,100788.08
2019-01-22T02:14:44.748Z,100785.41
2019-01-22T02:17:38.762Z,100783.74
2019-01-22T02:20:44.755Z,100782.92
2019-01-22T02:23:36.473Z,100769.05
2019-01-22T02:26:31.605Z,100769.05
2019-01-22T02:29:29.175Z,100760.13
2019-01-22T02:32:21.382Z,100762.55
2019-01-22T02:34:59.332Z,100762.47
2019-01-22T02:37:58.554Z,100746.80
2019-01-22T02:40:39.380Z,100742.53
2019-01-22T02:43:31.051Z,100737.55
2019-01-22T02:46:31.537Z,100732.33
2019-01-22T02:49:36.098Z,100726.33
2019-01-22T02:52:39.255Z,100722.42
2019-01-22T02:55:29.455Z,100713.62
2019-01-22T02:58:26.562Z,100701.05
2019-01-22T03:01:49.292Z,100692.47
2019-01-22T03:04:58.218Z,100692.80
2019-01-22T03:07:49.713Z,100683.27
2019-01-22T03:10:51.349Z,100665.59
2019-01-22T03:14:05.107Z,100665.59
2019-01-22T03:17:13.734Z,100675.17
2019-01-22T03:20:12.289Z,100672.91
2019-01-22T03:23:24.176Z,100663.70
2019-01-22T03:26:24.532Z,100663.70
2019-01-22T03:29:05.503Z,100659.31
2019-01-22T03:32:02.051Z,100645.34
2019-01-22T03:34:49.081Z,100639.59
2019-01-22T03:37:56.792Z,100639.59
2019-01-22T03:40:52.810Z,100634.61
2019-01-22T03:43:54.152Z,100623.70
2019-01-22T03:46:53.285Z,100618.27
2019-01-22T03:49:28.705Z,100607.14
2019-01-22T03:52:49.317Z,100607.14
2019-01-22T03:55:49.801Z,100613.30
2019-01-22T03:58:16.782Z,100608.54
2019-01-22T04:00:51.629Z,100608.54
2019-01-22T04:03:19.622Z,100610.45
2019-01-22T04:05:48.898Z,100610.45
2019-01-22T04:08:15.856Z,100605.25
2019-01-22T04:11:22.184Z,100601.96
2019-01-22T04:13:49.214Z,100593.09
2019-01-22T04:16:16.141Z,100593.09
2019-01-22T04:18:43.153Z,100588.52
2019-01-22T04:21:13.067Z,100583.31
2019-01-22T04:24:15.772Z,100580.94
2019-01-22T04:27:05.401Z,100579.95
2019-01-22T04:30:11.485Z,100564.80
2019-01-22T04:32:58.452Z,100564.80
2019-01-22T04:36:06.163Z,100564.19
2019-01-22T04:39:04.694Z,100564.19
2019-01-22T04:42:09.260Z,100565.09
2019-01-22T04:44:50.473Z,100556.55
2019-01-22T04:47:50.419Z,100552.16
2019-01-22T04:50:40.276Z,100550.77
2019-01-22T04:54:09.622Z,100538.16
2019-01-22T04:57:11.659Z,100538.16
2019-01-22T05:00:16.308Z,100526.81
2019-01-22T05:03:21.684Z,100521.97
2019-01-22T05:06:23.328Z,100521.97
2019-01-22T05:09:36.630Z,100517.38
2019-01-22T05:12:42.527Z,100517.38
2019-01-22T05:16:09.142Z,100500.20
2019-01-22T05:19:12.402Z,100500.20
2019-01-22T05:21:59.978Z,100491.58
2019-01-22T05:25:12.400Z,100491.58
2019-01-22T05:28:28.887Z,100485.23
2019-01-22T05:31:40.217Z,100479.38
2019-01-22T05:34:43.864Z,100479.38
2019-01-22T05:37:31.788Z,100478.67
2019-01-22T05:40:40.491Z,100465.22
2019-01-22T05:43:37.899Z,100466.06
2019-01-22T05:46:12.088Z,100457.76
2019-01-22T05:48:52.076Z,100457.76
2019-01-22T05:51:31.059Z,100450.73
2019-01-22T05:54:39.630Z,100450.73
2019-01-22T05:57:30.281Z,100453.22
2019-01-22T06:00:18.895Z,100453.22
2019-01-22T06:03:18.812Z,100447.66
2019-01-22T06:06:39.989Z,100442.45
2019-01-22T06:09:40.328Z,100442.45
2019-01-22T06:12:50.513Z,100438.77
2019-01-22T06:15:26.449Z,100438.77
2019-01-22T06:18:19.001Z,100439.18
2019-01-22T06:20:59.316Z,100431.61
2019-01-22T06:24:06.778Z,100421.94
2019-01-22T06:26:52.726Z,100424.91
2019-01-22T06:30:06.159Z,100419.06
2019-01-22T06:33:15.793Z,100414.38
2019-01-22T06:36:37.830Z,100412.54
2019-01-22T06:39:36.168Z,100412.54
2019-01-22T06:42:50.277Z,100408.03
2019-01-22T06:45:57.958Z,100419.13
2019-01-22T06:49:21.804Z,100407.88
2019-01-22T06:52:45.883Z,100399.27
2019-01-22T06:55:55.951Z,100341.06
2019-01-22T06:59:21.058Z,100341.06
2019-01-22T07:02:12.826Z,100387.06
2019-01-22T07:05:03.339Z,100389.31
2019-01-22T07:08:16.878Z,100389.31
2019-01-22T07:11:04.383Z,100385.53
2019-01-22T07:14:31.233Z,100372.47
2019-01-22T07:17:26.249Z,100369.03
2019-01-22T07:20:52.999Z,100366.56
2019-01-22T07:24:02.951Z,100366.56
2019-01-22T07:27:01.493Z,100356.27
2019-01-22T07:29:59.332Z,100361.09
2019-01-22T07:32:55.591Z,100361.09
2019-01-22T07:35:29.484Z,100349.67
2019-01-22T07:38:17.308Z,100353.95
2019-01-22T07:41:13.645Z,100343.26
2019-01-22T07:43:51.555Z,100343.26
2019-01-22T07:47:08.430Z,100335.63
2019-01-22T07:50:07.119Z,100338.84
2019-01-22T07:52:58.138Z,100330.23
2019-01-22T07:55:49.159Z,100324.42
2019-01-22T07:58:40.903Z,100317.77
2019-01-22T08:01:19.738Z,100317.77
2019-01-22T08:04:53.205Z,100308.41
2019-01-22T08:07:54.304Z,100304.70
2019-01-22T08:11:04.608Z,100296.73
2019-01-22T08:13:52.574Z,100296.73
2019-01-22T08:16:58.515Z,100292.98
2019-01-22T08:20:03.675Z,100291.08
2019-01-22T08:23:05.462Z,100282.73
2019-01-22T08:26:03.597Z,100282.38
2019-01-22T08:28:47.776Z,100285.83
2019-01-22T08:31:36.647Z,100282.44
2019-01-22T08:34:45.418Z,100272.13
2019-01-22T08:38:08.123Z,100272.13
2019-01-22T08:41:18.646Z,100268.26
2019-01-22T08:44:06.818Z,100260.81
2019-01-22T08:47:21.658Z,100260.81
2019-01-22T08:50:14.928Z,100254.83
2019-01-22T08:52:55.833Z,100249.83
2019-01-22T08:56:03.264Z,100250.59
2019-01-22T08:58:59.261Z,100241.81
2019-01-22T09:01:51.286Z,100239.86
2019-01-22T09:04:51.050Z,100230.77
2019-01-22T09:07:58.398Z,100224.66
2019-01-22T09:11:09.426Z,100229.91
2019-01-22T09:14:14.541Z,100228.88
2019-01-22T09:17:33.571Z,100219.17
2019-01-22T09:20:33.159Z,100225.16
2019-01-22T09:23:25.689Z,100217.47
2019-01-22T09:26:06.877Z,100204.36
2019-01-22T09:29:17.883Z,100210.73
2019-01-22T09:32:21.797Z,100199.24
2019-01-22T09:35:26.453Z,100192.54
2019-01-22T09:38:00.083Z,100193.48
2019-01-22T09:40:27.049Z,100179.25
2019-01-22T09:42:53.981Z,100179.48
2019-01-22T09:45:20.944Z,100174.27
2019-01-22T09:47:47.878Z,100166.27
2019-01-22T09:50:14.825Z,100169.11
2019-01-22T09:52:41.878Z,100163.57
2019-01-22T09:55:09.986Z,100156.91
2019-01-22T09:57:37.341Z,100155.67
2019-01-22T10:00:05.678Z,100154.20
2019-01-22T10:02:32.625Z,100147.46
2019-01-22T10:04:59.551Z,100140.78
2019-01-22T10:07:26.503Z,100136.98
2019-01-22T10:09:53.489Z,100132.34
2019-01-22T10:12:20.524Z,100133.86
2019-01-22T10:14:47.440Z,100128.61
2019-01-22T10:17:31.433Z,100127.28
2019-01-22T10:20:26.977Z,100126.69
2019-01-22T10:23:06.267Z,100115.99
2019-01-22T10:25:33.663Z,100121.98
2019-01-22T10:28:01.408Z,100110.09
2019-01-22T10:30:28.514Z,100106.31
2019-01-22T10:32:55.448Z,100105.14
2019-01-22T10:35:22.444Z,100095.87
2019-01-22T10:37:49.395Z,100089.48
2019-01-22T10:40:18.167Z,100084.77
2019-01-22T10:42:45.147Z,100082.73
2019-01-22T10:45:14.202Z,100073.03
2019-01-22T10:47:41.148Z,100071.37
2019-01-22T10:50:08.801Z,100065.47
2019-01-22T10:52:37.027Z,100060.00
2019-01-22T10:55:05.410Z,100054.11
2019-01-22T10:57:32.344Z,100050.26
2019-01-22T10:59:59.289Z,100043.84
2019-01-22T11:02:26.333Z,100042.95
2019-01-22T11:04:53.228Z,100035.77
2019-01-22T11:07:20.199Z,100030.70
2019-01-22T11:09:47.084Z,100026.82
2019-01-22T11:12:14.088Z,100025.57
2019-01-22T11:14:41.045Z,100013.12
2019-01-22T11:17:08.054Z,100008.02
2019-01-22T11:19:34.958Z,100002.48
2019-01-22T11:22:01.904Z,100002.95
2019-01-22T11:24:30.410Z,99997.80
2019-01-22T11:26:57.559Z,99993.15
2019-01-22T11:29:24.695Z,99979.00
2019-01-22T11:31:51.591Z,99985.87
2019-01-22T11:34:18.546Z,99978.58
2019-01-22T11:36:45.548Z,99965.28
2019-01-22T11:39:12.478Z,99968.28
2019-01-22T11:41:39.379Z,99954.99
2019-01-22T11:44:06.742Z,99957.13
2019-01-22T11:46:33.630Z,99953.70
2019-01-22T11:49:03.633Z,99946.41
2019-01-22T11:51:30.548Z,99939.11
2019-01-22T11:53:57.970Z,99933.52
2019-01-22T11:56:25.037Z,99927.08
2019-01-22T11:58:51.987Z,99920.20
2019-01-22T12:01:18.914Z,99918.03
2019-01-22T12:03:45.939Z,99909.46
2019-01-22T12:06:12.926Z,99908.61
2019-01-22T12:08:40.120Z,99903.86
2019-01-22T12:11:07.084Z,99894.87
2019-01-22T12:13:34.007Z,99893.59
2019-01-22T12:16:01.198Z,99891.89
2019-01-22T12:18:28.296Z,99880.27
2019-01-22T12:20:55.300Z,99881.53
2019-01-22T12:23:22.228Z,99881.11
2019-01-22T12:25:49.138Z,99878.07
2019-01-22T12:28:16.237Z,99876.81
2019-01-22T12:30:43.260Z,99871.23
2019-01-22T12:33:10.657Z,99869.08
2019-01-22T12:35:37.592Z,99865.66
2019-01-22T12:38:05.002Z,99866.95
2019-01-22T12:40:31.926Z,99858.80
2019-01-22T12:43:02.151Z,99852.38
2019-01-22T12:45:35.398Z,99846.77
2019-01-22T12:48:02.614Z,99852.78
2019-01-22T12:50:29.937Z,99842.95
2019-01-22T12:52:57.011Z,99834.37
2019-01-22T12:55:23.982Z,99829.62
2019-01-22T12:57:50.862Z,99824.05
2019-01-22T13:00:22.962Z,99788.83
2019-01-22T13:02:49.894Z,99823.17
2019-01-22T13:05:21.574Z,99817.15
2019-01-22T13:07:48.479Z,99806.87
2019-01-22T13:10:15.501Z,99815.42
2019-01-22T13:12:42.399Z,99811.98
2019-01-22T13:15:09.396Z,99810.20
2019-01-22T13:17:36.308Z,99809.39
2019-01-22T13:20:05.856Z,99813.22
2019-01-22T13:22:32.771Z,99801.69
2019-01-22T13:24:59.805Z,99802.59
2019-01-22T13:27:26.712Z,99794.44
2019-01-22T13:29:53.668Z,99781.13
2019-01-22T13:32:20.580Z,99780.76
2019-01-22T13:34:47.609Z,99779.38
2019-01-22T13:37:14.533Z,99784.58
2019-01-22T13:39:41.508Z,99775.19
2019-01-22T13:42:08.408Z,99779.45
2019-01-22T13:44:35.419Z,99763.11
2019-01-22T13:47:02.325Z,99759.67
2019-01-22T13:49:29.254Z,99761.39
2019-01-22T13:51:56.159Z,99757.17
2019-01-22T13:54:23.143Z,99748.62
2019-01-22T13:56:50.075Z,99750.77
2019-01-22T13:59:17.111Z,99740.89
2019-01-22T14:01:44.007Z,99745.62
2019-01-22T14:04:10.979Z,99735.36
2019-01-22T14:06:37.951Z,99738.36
2019-01-22T14:09:06.856Z,99729.77
2019-01-22T14:11:34.062Z,99729.80
2019-01-22T14:14:00.979Z,99713.92
2019-01-22T14:16:27.959Z,99710.93
2019-01-22T14:18:54.854Z,99716.89
2019-01-22T14:21:21.808Z,99715.20
2019-01-22T14:23:48.711Z,99722.05
2019-01-22T14:26:15.833Z,99716.89
2019-01-22T14:28:42.755Z,99718.17
2019-01-22T14:31:09.735Z,99713.88
2019-01-22T14:33:36.675Z,99715.18
2019-01-22T14:36:04.345Z,99712.59
2019-01-22T14:38:31.284Z,99705.75
2019-01-22T14:40:58.204Z,99702.80
2019-01-22T14:43:25.105Z,99699.34
2019-01-22T14:45:52.043Z,99698.08
2019-01-22T14:48:19.012Z,99696.78
2019-01-22T14:50:45.933Z,99693.78
2019-01-22T14:53:13.144Z,99695.93
2019-01-22T14:55:40.136Z,99694.21
2019-01-22T14:58:07.103Z,99692.05
2019-01-22T15:00:34.049Z,99684.70
2019-01-22T15:03:01.072Z,99690.29
2019-01-22T15:05:28.168Z,99687.73
2019-01-22T15:07:55.090Z,99686.03
2019-01-22T15:10:22.069Z,99684.70
2019-01-22T15:12:50.919Z,99688.61
2019-01-22T15:15:18.196Z,99683.07
2019-01-22T15:17:45.125Z,99689.05
2019-01-22T15:20:20.000Z,99690.31
2019-01-22T15:22:47.137Z,99691.60
2019-01-22T15:25:14.075Z,99689.06
2019-01-22T15:27:41.026Z,99687.77
2019-01-22T15:30:13.998Z,99692.48
2019-01-22T15:32:41.040Z,99681.78
2019-01-22T15:35:08.993Z,99681.36
2019-01-22T15:37:35.938Z,99679.64
2019-01-22T15:40:04.900Z,99678.77
2019-01-22T15:42:31.992Z,99680.52
2019-01-22T15:45:05.884Z,99672.38
2019-01-22T15:47:27.976Z,99668.93
2019-01-22T15:49:54.879Z,99670.23
2019-01-22T15:52:21.803Z,99669.34
2019-01-22T15:54:48.704Z,99664.66
2019-01-22T15:57:15.857Z,99662.95
2019-01-22T15:59:42.842Z,99660.79
2019-01-22T16:02:09.897Z,99662.08
2019-01-22T16:04:36.789Z,99657.35
2019-01-22T16:07:03.853Z,99652.66
2019-01-22T16:09:30.748Z,99657.34
2019-01-22T16:11:57.846Z,99659.48
2019-01-22T16:14:24.766Z,99656.04
2019-01-22T16:16:51.703Z,99651.78
2019-01-22T16:19:18.632Z,99656.47
2019-01-22T16:21:45.861Z,99645.74
2019-01-22T16:24:12.778Z,99648.77
2019-01-22T16:26:39.754Z,99649.17
2019-01-22T16:29:07.002Z,99650.84
2019-01-22T16:31:33.950Z,99645.73
2019-01-22T16:34:02.285Z,99648.27
2019-01-22T16:36:29.615Z,99644.84
2019-01-22T16:38:56.588Z,99646.52
2019-01-22T16:41:23.519Z,99648.23
2019-01-22T16:43:50.580Z,99646.00
2019-01-22T16:46:17.504Z,99645.61
2019-01-22T16:48:44.550Z,99645.16
2019-01-22T16:51:11.563Z,99639.17
2019-01-22T16:53:38.506Z,99646.44
2019-01-22T16:56:05.511Z,99639.56
2019-01-22T16:58:32.583Z,99635.66
2019-01-22T17:00:59.512Z,99638.20
2019-01-22T17:03:26.472Z,99641.98
2019-01-22T17:05:53.482Z,99634.34
2019-01-22T17:08:20.437Z,99644.13
2019-01-22T17:10:47.408Z,99644.56
2019-01-22T17:13:14.417Z,99644.13
2019-01-22T17:15:41.329Z,99644.06
2019-01-22T17:18:08.635Z,99641.02
2019-01-22T17:20:38.282Z,99637.23
2019-01-22T17:23:05.315Z,99641.05
2019-01-22T17:25:32.311Z,99634.20
2019-01-22T17:27:59.441Z,99628.58
2019-01-22T17:30:26.603Z,99633.81
2019-01-22T17:33:09.561Z,99635.92
2019-01-22T17:35:39.178Z,99631.94
2019-01-22T17:38:06.123Z,99633.17
2019-01-22T17:40:33.043Z,99625.87
2019-01-22T17:43:00.026Z,99631.52
2019-01-22T17:45:27.017Z,99634.00
2019-01-22T17:47:53.932Z,99631.52
2019-01-22T17:50:20.864Z,99628.05
2019-01-22T17:52:47.784Z,99627.56
2019-01-22T17:55:14.710Z,99621.12
2019-01-22T17:57:41.905Z,99630.48
2019-01-22T18:00:11.633Z,99633.47
2019-01-22T18:02:38.539Z,99624.11
2019-01-22T18:05:07.011Z,99621.02
2019-01-22T18:07:34.005Z,99619.73
2019-01-22T18:10:00.930Z,99623.17
2019-01-22T18:12:27.653Z,99619.68
2019-01-22T18:14:55.026Z,99623.55
2019-01-22T18:17:22.257Z,99623.50
2019-01-22T18:19:49.221Z,99614.53
2019-01-22T18:22:16.114Z,99617.44
2019-01-22T18:24:43.037Z,99613.59
2019-01-22T18:27:09.959Z,99612.42
2019-01-22T18:29:36.894Z,99617.89
2019-01-22T18:32:03.814Z,99606.82
2019-01-22T18:34:30.733Z,99611.52
2019-01-22T18:36:57.617Z,99612.37
2019-01-22T18:39:24.570Z,99607.70
2019-01-22T18:41:51.482Z,99617.83
2019-01-22T18:44:18.637Z,99612.22
2019-01-22T18:46:45.529Z,99607.65
2019-01-22T18:49:12.484Z,99605.54
2019-01-22T18:51:39.539Z,99608.78
2019-01-22T18:54:06.475Z,99611.52
2019-01-22T18:56:33.524Z,99606.45
2019-01-22T18:59:00.416Z,99607.76
2019-01-22T19:01:27.357Z,99609.44
2019-01-22T19:03:54.251Z,99605.03
2019-01-22T19:06:21.211Z,99602.41
2019-01-22T19:08:50.450Z,99604.63
2019-01-22T19:11:17.372Z,99600.47
2019-01-22T19:13:44.293Z,99597.86
2019-01-22T19:16:11.284Z,99598.23
2019-01-22T19:18:38.258Z,99601.30
2019-01-22T19:21:05.187Z,99599.64
2019-01-22T19:23:32.188Z,99597.00
2019-01-22T19:25:59.150Z,99594.87
2019-01-22T19:28:26.137Z,99595.67
2019-01-22T19:30:53.062Z,99590.58
2019-01-22T19:33:19.979Z,99594.44
2019-01-22T19:35:47.713Z,99593.53
2019-01-22T19:38:14.627Z,99593.53
2019-01-22T19:40:41.594Z,99591.94
2019-01-22T19:43:08.640Z,99589.23
2019-01-22T19:45:35.853Z,99591.08
2019-01-22T19:48:02.797Z,99588.47
2019-01-22T19:50:29.736Z,99585.96
2019-01-22T19:52:56.797Z,99580.78
2019-01-22T19:55:23.736Z,99581.20
2019-01-22T19:57:50.792Z,99582.13
2019-01-22T20:00:32.172Z,99581.66
2019-01-22T20:02:59.403Z,99576.19
2019-01-22T20:05:27.038Z,99580.08
2019-01-22T20:07:56.020Z,99578.70
2019-01-22T20:10:22.957Z,99571.95
2019-01-22T20:12:49.864Z,99571.56
2019-01-22T20:15:16.916Z,99571.59
2019-01-22T20:17:43.915Z,99563.88
2019-01-22T20:20:13.510Z,99554.41
2019-01-22T20:22:41.003Z,99559.13
2019-01-22T20:25:08.680Z,99560.75
2019-01-22T20:27:35.639Z,99557.00
2019-01-22T20:30:04.088Z,99550.22
2019-01-22T20:32:30.998Z,99549.77
2019-01-22T20:34:58.059Z,99546.78
2019-01-22T20:37:24.985Z,99549.74
2019-01-22T20:39:51.907Z,99550.15
2019-01-22T20:42:18.826Z,99550.19
2019-01-22T20:44:45.774Z,99554.48
2019-01-22T20:47:12.831Z,99551.97
2019-01-22T20:49:39.791Z,99544.28
2019-01-22T20:52:06.792Z,99553.99
2019-01-22T20:54:33.699Z,99544.20
2019-01-22T20:57:00.621Z,99546.76
2019-01-22T20:59:27.528Z,99541.22
2019-01-22T21:01:54.516Z,99545.88
2019-01-22T21:04:21.395Z,99543.80
2019-01-22T21:06:48.339Z,99544.24
2019-01-22T21:09:15.258Z,99543.34
2019-01-22T21:11:42.316Z,99538.24
2019-01-22T21:14:09.359Z,99537.47
2019-01-22T21:16:36.479Z,99537.34
2019-01-22T21:19:03.372Z,99533.56
2019-01-22T21:21:30.296Z,99530.08
2019-01-22T21:23:57.303Z,99526.31
2019-01-22T21:26:24.295Z,99534.84
2019-01-22T21:28:51.312Z,99532.64
2019-01-22T21:31:18.443Z,99536.58
2019-01-22T21:33:45.359Z,99528.80
2019-01-22T21:36:12.329Z,99525.87
2019-01-22T21:38:39.273Z,99519.45
2019-01-22T21:41:06.283Z,99521.20
2019-01-22T21:43:33.217Z,99517.30
2019-01-22T21:46:00.125Z,99518.66
2019-01-22T21:48:27.047Z,99515.67
2019-01-22T21:50:53.968Z,99514.33
2019-01-22T21:53:20.881Z,99512.16
2019-01-22T21:55:47.772Z,99509.59
2019-01-22T21:58:14.743Z,99505.42
2019-01-22T22:00:41.633Z,99502.44
2019-01-22T22:03:08.598Z,99504.97
2019-01-22T22:05:35.558Z,99497.25
2019-01-22T22:08:02.994Z,99487.81
2019-01-22T22:10:29.928Z,99485.64
2019-01-22T22:12:56.845Z,99483.09
2019-01-22T22:15:23.981Z,99477.47
2019-01-22T22:17:50.905Z,99483.48
2019-01-22T22:20:17.987Z,99480.56
2019-01-22T22:22:44.954Z,99441.02
2019-01-22T22:25:13.556Z,99471.86
2019-01-22T22:27:40.595Z,99467.58
2019-01-22T22:30:11.699Z,99463.73
2019-01-22T22:32:38.629Z,99457.88
2019-01-22T22:35:05.660Z,99455.62
2019-01-22T22:37:32.574Z,99453.03
2019-01-22T22:39:59.462Z,99449.62
2019-01-22T22:42:26.452Z,99452.98
2019-01-22T22:44:53.370Z,99444.41
2019-01-22T22:47:20.326Z,99445.21
2019-01-22T22:49:47.273Z,99439.66
2019-01-22T22:52:14.142Z,99442.52
2019-01-22T22:54:41.074Z,99442.22
2019-01-22T22:57:07.977Z,99443.05
2019-01-22T22:59:34.908Z,99442.44
2019-01-22T23:02:01.836Z,99443.00
2019-01-22T23:04:28.798Z,99441.25
2019-01-22T23:06:55.750Z,99439.09
2019-01-22T23:09:22.680Z,99437.75
2019-01-22T23:11:49.737Z,99445.54
2019-01-22T23:14:16.658Z,99448.05
2019-01-22T23:16:43.541Z,99442.13
2019-01-22T23:19:10.479Z,99435.16
2019-01-22T23:21:37.377Z,99438.66
2019-01-22T23:24:04.488Z,99427.28
2019-01-22T23:26:31.377Z,99426.27
2019-01-22T23:28:58.350Z,99425.31
2019-01-22T23:31:25.291Z,99418.52
2019-01-22T23:33:52.320Z,99414.28
2019-01-22T23:36:19.222Z,99417.27
2019-01-22T23:38:46.148Z,99416.75
2019-01-22T23:41:13.046Z,99412.95
2019-01-22T23:43:39.973Z,99410.70
2019-01-22T23:46:06.865Z,99407.86
2019-01-22T23:48:33.860Z,99407.01
2019-01-22T23:51:00.760Z,99402.75
2019-01-22T23:53:27.699Z,99406.08
2019-01-22T23:55:54.610Z,99404.77
2019-01-22T23:58:21.577Z,99401.38
